createdAt,value
2023-01-20T00:01:40.980Z,27.70
2023-01-20T00:04:08.313Z,30.80
2023-01-20T00:06:35.553Z,34.10
2023-01-20T00:09:03.559Z,27.15
2023-01-20T00:11:30.984Z,31.45
2023-01-20T00:14:03.202Z,30.33
2023-01-20T00:16:32.237Z,29.60
2023-01-20T00:18:59.870Z,37.47
2023-01-20T00:21:27.255Z,38.90
2023-01-20T00:23:54.707Z,32.47
2023-01-20T00:26:24.282Z,32.85
2023-01-20T00:28:54.230Z,31.10
2023-01-20T00:31:26.752Z,29.05
2023-01-20T00:33:56.365Z,26.00
2023-01-20T00:36:24.450Z,28.98
2023-01-20T00:38:51.997Z,30.88
2023-01-20T00:41:19.636Z,30.92
2023-01-20T00:43:46.955Z,32.90
2023-01-20T00:46:14.956Z,29.35
2023-01-20T00:48:42.934Z,37.05
2023-01-20T00:51:10.783Z,31.30
2023-01-20T00:53:38.230Z,33.33
2023-01-20T00:56:06.097Z,33.70
2023-01-20T00:58:33.383Z,37.97
2023-01-20T01:01:01.229Z,34.05
2023-01-20T01:03:28.771Z,29.50
2023-01-20T01:06:06.090Z,36.85
2023-01-20T01:08:33.972Z,34.25
2023-01-20T01:11:01.188Z,34.88
2023-01-20T01:13:28.749Z,26.63
2023-01-20T01:15:56.011Z,32.65
2023-01-20T01:18:23.230Z,38.95
2023-01-20T01:20:50.511Z,35.70
2023-01-20T01:23:17.719Z,40.83
2023-01-20T01:25:45.013Z,33.20
2023-01-20T01:28:12.270Z,42.42
2023-01-20T01:30:39.556Z,37.92
2023-01-20T01:33:06.790Z,30.20
2023-01-20T01:35:34.009Z,35.45
2023-01-20T01:38:01.261Z,36.97
2023-01-20T01:40:28.446Z,31.67
2023-01-20T01:42:55.732Z,42.10
2023-01-20T01:45:25.296Z,35.38
2023-01-20T01:48:03.640Z,39.65
2023-01-20T01:50:43.257Z,35.08
2023-01-20T01:53:10.974Z,36.05
2023-01-20T01:55:41.780Z,38.85
2023-01-20T01:58:10.562Z,34.30
2023-01-20T02:00:38.673Z,33.65
2023-01-20T02:03:06.731Z,36.85
2023-01-20T02:05:34.087Z,41.22
2023-01-20T02:08:01.369Z,35.97
2023-01-20T02:10:28.839Z,48.83
2023-01-20T02:12:56.266Z,37.50
2023-01-20T02:15:27.869Z,44.47
2023-01-20T02:17:59.007Z,43.78
2023-01-20T02:20:41.114Z,38.63
2023-01-20T02:23:29.069Z,36.53
2023-01-20T02:26:22.618Z,49.03
2023-01-20T02:29:00.846Z,38.70
2023-01-20T02:31:56.722Z,47.33
2023-01-20T02:34:33.414Z,36.92
2023-01-20T02:37:08.799Z,41.90
2023-01-20T02:39:41.625Z,42.45
2023-01-20T02:42:14.892Z,50.92
2023-01-20T02:44:57.047Z,37.25
2023-01-20T02:47:31.252Z,39.65
2023-01-20T02:50:19.484Z,45.78
2023-01-20T02:52:50.874Z,48.05
2023-01-20T02:55:42.096Z,43.90
2023-01-20T02:58:31.820Z,44.28
2023-01-20T03:01:03.600Z,44.38
2023-01-20T03:03:34.531Z,47.00
2023-01-20T03:06:04.063Z,52.13
2023-01-20T03:08:32.672Z,51.45
2023-01-20T03:11:05.529Z,45.97
2023-01-20T03:13:39.691Z,45.03
2023-01-20T03:16:10.078Z,47.72
2023-01-20T03:18:37.779Z,46.72
2023-01-20T03:21:06.993Z,53.70
2023-01-20T03:23:49.002Z,47.58
2023-01-20T03:26:18.804Z,58.85
2023-01-20T03:28:46.741Z,42.92
2023-01-20T03:31:22.895Z,47.88
2023-01-20T03:33:51.948Z,54.72
2023-01-20T03:36:20.448Z,45.38
2023-01-20T03:38:47.924Z,54.90
2023-01-20T03:41:35.600Z,47.97
2023-01-20T03:44:31.863Z,48.28
2023-01-20T03:47:08.812Z,44.88
2023-01-20T03:49:51.929Z,56.53
2023-01-20T03:52:47.815Z,54.92
2023-01-20T03:55:22.938Z,50.35
2023-01-20T03:58:03.510Z,57.50
2023-01-20T04:00:36.055Z,53.60
2023-01-20T04:03:07.831Z,44.22
2023-01-20T04:05:36.326Z,50.85
2023-01-20T04:08:07.424Z,50.57
2023-01-20T04:10:36.894Z,45.45
2023-01-20T04:13:04.452Z,49.50
2023-01-20T04:15:42.265Z,45.63
2023-01-20T04:18:23.143Z,45.80
2023-01-20T04:20:57.010Z,56.35
2023-01-20T04:23:32.657Z,58.55
2023-01-20T04:25:59.958Z,52.13
2023-01-20T04:28:27.258Z,60.33
2023-01-20T04:30:54.965Z,51.13
2023-01-20T04:33:22.340Z,54.15
2023-01-20T04:35:49.682Z,46.58
2023-01-20T04:38:16.930Z,51.30
2023-01-20T04:40:44.200Z,58.05
2023-01-20T04:43:12.328Z,56.20
2023-01-20T04:45:41.604Z,52.10
2023-01-20T04:48:09.516Z,57.75
2023-01-20T04:50:41.074Z,53.08
2023-01-20T04:53:13.470Z,56.90
2023-01-20T04:55:40.712Z,48.17
2023-01-20T04:58:09.423Z,55.35
2023-01-20T05:00:36.789Z,61.03
2023-01-20T05:03:06.066Z,61.85
2023-01-20T05:08:01.068Z,53.47
2023-01-20T05:10:40.513Z,57.90
2023-01-20T05:13:07.868Z,53.55
2023-01-20T05:15:35.153Z,59.42
2023-01-20T05:18:02.499Z,60.05
2023-01-20T05:20:30.377Z,55.00
2023-01-20T05:23:01.141Z,62.42
2023-01-20T05:25:28.672Z,62.35
2023-01-20T05:27:55.903Z,63.35
2023-01-20T05:30:23.251Z,64.78
2023-01-20T05:32:51.172Z,69.57
2023-01-20T05:35:18.806Z,69.90
2023-01-20T05:37:46.078Z,79.15
2023-01-20T05:40:14.274Z,65.20
2023-01-20T05:42:41.531Z,71.57
2023-01-20T05:45:09.377Z,78.75
2023-01-20T05:47:36.723Z,73.97
2023-01-20T05:50:04.831Z,78.03
2023-01-20T05:52:32.144Z,81.05
2023-01-20T05:54:59.351Z,75.93
2023-01-20T05:57:26.871Z,74.05
2023-01-20T05:59:55.751Z,79.65
2023-01-20T06:02:23.021Z,80.22
2023-01-20T06:04:50.459Z,75.35
2023-01-20T06:07:17.686Z,72.05
2023-01-20T06:09:45.162Z,83.88
2023-01-20T06:12:13.628Z,70.75
2023-01-20T06:14:40.943Z,84.47
2023-01-20T06:17:11.233Z,80.13
2023-01-20T06:19:38.512Z,72.18
2023-01-20T06:22:07.179Z,81.00
2023-01-20T06:24:34.419Z,84.53
2023-01-20T06:27:01.855Z,73.85
2023-01-20T06:29:29.132Z,75.47
2023-01-20T06:31:56.417Z,64.68
2023-01-20T06:34:23.717Z,73.85
2023-01-20T06:36:51.128Z,65.20
2023-01-20T06:39:18.528Z,70.35
2023-01-20T06:41:46.590Z,68.40
2023-01-20T06:44:13.851Z,71.47
2023-01-20T06:46:41.261Z,73.60
2023-01-20T06:49:08.527Z,70.20
2023-01-20T06:51:35.786Z,79.82
2023-01-20T06:54:03.209Z,76.90
2023-01-20T06:56:30.502Z,75.70
2023-01-20T06:58:58.353Z,70.80
2023-01-20T07:01:27.995Z,80.65
2023-01-20T07:03:55.659Z,80.43
2023-01-20T07:06:31.091Z,68.32
2023-01-20T07:08:59.301Z,72.43
2023-01-20T07:11:26.976Z,81.38
2023-01-20T07:13:54.283Z,81.82
2023-01-20T07:16:21.591Z,89.25
2023-01-20T07:18:50.043Z,86.35
2023-01-20T07:21:17.705Z,78.67
2023-01-20T07:23:45.296Z,78.88
2023-01-20T07:26:15.300Z,81.28
2023-01-20T07:28:42.622Z,68.10
2023-01-20T07:31:11.038Z,79.03
2023-01-20T07:33:41.001Z,76.67
2023-01-20T07:36:09.324Z,80.50
2023-01-20T07:38:37.026Z,69.72
2023-01-20T07:41:07.712Z,80.85
2023-01-20T07:43:35.080Z,80.78
2023-01-20T07:46:04.485Z,76.15
2023-01-20T07:51:05.668Z,74.45
2023-01-20T07:53:46.831Z,77.88
2023-01-20T07:56:20.350Z,89.03
2023-01-20T07:58:50.584Z,90.57
2023-01-20T08:01:23.445Z,78.68
2023-01-20T08:03:51.354Z,76.15
2023-01-20T08:06:21.409Z,81.25
2023-01-20T08:08:48.759Z,75.57
2023-01-20T08:11:17.534Z,82.25
2023-01-20T08:13:45.216Z,69.93
2023-01-20T08:16:15.482Z,72.25
2023-01-20T08:18:43.079Z,69.90
2023-01-20T08:21:19.483Z,68.80
2023-01-20T08:23:46.716Z,71.15
2023-01-20T08:26:14.224Z,63.25
2023-01-20T08:28:41.541Z,70.57
2023-01-20T08:31:12.101Z,68.97
2023-01-20T08:33:39.868Z,63.15
2023-01-20T08:36:19.779Z,58.85
2023-01-20T08:38:48.154Z,63.08
2023-01-20T08:41:27.490Z,62.22
2023-01-20T08:46:24.368Z,58.67
2023-01-20T08:48:51.967Z,53.88
2023-01-20T08:51:28.639Z,55.25
2023-01-20T08:53:56.027Z,55.10
2023-01-20T08:56:23.295Z,58.03
2023-01-20T08:58:50.877Z,59.65
2023-01-20T09:01:21.497Z,60.67
2023-01-20T09:04:04.239Z,53.92
2023-01-20T09:06:53.830Z,63.50
2023-01-20T09:09:22.660Z,58.95
2023-01-20T09:11:52.746Z,58.42
2023-01-20T09:14:24.493Z,51.58
2023-01-20T09:16:51.967Z,54.75
2023-01-20T09:19:19.496Z,64.47
2023-01-20T09:21:47.157Z,53.65
2023-01-20T09:24:14.464Z,55.00
2023-01-20T09:26:41.783Z,53.20
2023-01-20T09:29:13.085Z,48.25
2023-01-20T09:31:54.152Z,53.55
2023-01-20T09:34:21.986Z,63.22
2023-01-20T09:36:55.100Z,52.22
2023-01-20T09:39:41.409Z,58.80
2023-01-20T09:42:55.310Z,48.75
2023-01-20T09:45:47.349Z,61.15
2023-01-20T09:49:07.212Z,49.88
2023-01-20T09:52:05.642Z,58.58
2023-01-20T09:54:42.114Z,56.03
2023-01-20T09:57:09.882Z,47.00
2023-01-20T09:59:43.709Z,45.40
2023-01-20T10:02:18.847Z,48.90
2023-01-20T10:04:52.737Z,47.00
2023-01-20T10:07:39.309Z,46.03
2023-01-20T10:10:20.229Z,44.92
2023-01-20T10:12:52.841Z,41.78
2023-01-20T10:15:24.061Z,41.40
2023-01-20T10:18:09.412Z,49.83
2023-01-20T10:20:41.786Z,41.40
2023-01-20T10:23:33.823Z,39.08
2023-01-20T10:26:22.340Z,53.53
2023-01-20T10:29:00.551Z,47.47
2023-01-20T10:31:31.338Z,47.75
2023-01-20T10:34:06.406Z,42.38
2023-01-20T10:36:35.236Z,40.55
2023-01-20T10:39:11.957Z,45.53
2023-01-20T10:41:46.097Z,40.42
2023-01-20T10:44:17.818Z,41.33
2023-01-20T10:46:57.435Z,43.10
2023-01-20T10:49:37.582Z,39.00
2023-01-20T10:52:27.372Z,47.75
2023-01-20T10:55:18.969Z,42.03
2023-01-20T10:58:08.468Z,40.33
2023-01-20T11:00:35.943Z,45.45
2023-01-20T11:03:05.650Z,44.85
2023-01-20T11:05:38.826Z,45.08
2023-01-20T11:08:26.369Z,35.58
2023-01-20T11:10:56.839Z,42.20
2023-01-20T11:13:24.134Z,36.53
2023-01-20T11:15:59.297Z,44.03
2023-01-20T11:18:29.427Z,44.63
2023-01-20T11:21:06.771Z,43.83
2023-01-20T11:23:41.116Z,38.33
2023-01-20T11:26:20.007Z,43.70
2023-01-20T11:28:48.908Z,42.78
2023-01-20T11:31:17.126Z,39.10
2023-01-20T11:33:59.504Z,46.10
2023-01-20T11:36:29.535Z,41.40
2023-01-20T11:38:57.677Z,42.85
2023-01-20T11:41:30.576Z,45.63
2023-01-20T11:43:59.249Z,38.28
2023-01-20T11:46:26.443Z,41.30
2023-01-20T11:49:13.904Z,45.88
2023-01-20T11:51:55.993Z,39.63
2023-01-20T11:54:25.761Z,43.80
2023-01-20T11:57:04.982Z,40.28
2023-01-20T11:59:35.056Z,37.47
2023-01-20T12:02:24.182Z,50.25
2023-01-20T12:05:07.094Z,38.85
2023-01-20T12:07:48.740Z,42.28
2023-01-20T12:10:26.283Z,44.17
2023-01-20T12:13:20.365Z,43.97
2023-01-20T12:15:54.724Z,39.45
2023-01-20T12:18:37.718Z,41.15
2023-01-20T12:21:18.478Z,45.75
2023-01-20T12:23:52.116Z,39.72
2023-01-20T12:26:21.551Z,39.80
2023-01-20T12:31:20.940Z,40.97
2023-01-20T12:33:50.565Z,38.03
2023-01-20T12:36:46.280Z,36.53
2023-01-20T12:39:32.103Z,42.42
2023-01-20T12:42:17.389Z,47.85
2023-01-20T12:45:00.015Z,38.50
2023-01-20T12:47:48.525Z,39.70
2023-01-20T12:50:37.054Z,42.45
2023-01-20T12:53:43.151Z,40.67
2023-01-20T12:56:23.101Z,40.38
2023-01-20T12:59:05.080Z,39.88
2023-01-20T13:01:47.983Z,37.97
2023-01-20T13:04:43.031Z,35.63
2023-01-20T13:07:34.625Z,48.00
2023-01-20T13:10:36.362Z,46.00
2023-01-20T13:13:30.186Z,45.03
2023-01-20T13:16:17.610Z,43.03
2023-01-20T13:19:00.345Z,45.58
2023-01-20T13:21:32.303Z,47.47
2023-01-20T13:24:01.311Z,39.17
2023-01-20T13:26:30.032Z,38.50
2023-01-20T13:29:00.707Z,40.17
2023-01-20T13:31:37.307Z,44.58
2023-01-20T13:34:23.271Z,40.03
2023-01-20T13:37:07.336Z,42.08
2023-01-20T13:39:45.916Z,39.67
2023-01-20T13:42:38.538Z,36.28
2023-01-20T13:45:17.619Z,42.42
2023-01-20T13:48:02.071Z,38.35
2023-01-20T13:50:43.861Z,46.63
2023-01-20T13:53:11.458Z,55.80
2023-01-20T13:55:44.781Z,51.25
2023-01-20T13:58:30.229Z,47.10
2023-01-20T14:01:05.618Z,56.15
2023-01-20T14:03:35.432Z,48.63
2023-01-20T14:06:03.598Z,44.60
2023-01-20T14:08:37.970Z,39.85
2023-01-20T14:11:17.605Z,51.33
2023-01-20T14:14:07.699Z,46.33
2023-01-20T14:16:35.072Z,79.30
2023-01-20T14:19:22.699Z,61.75
2023-01-20T14:21:58.163Z,84.72
2023-01-20T14:24:43.674Z,60.13
2023-01-20T14:27:20.663Z,70.80
2023-01-20T14:29:51.470Z,98.10
2023-01-20T14:32:34.241Z,87.30
2023-01-20T14:35:02.455Z,74.82
2023-01-20T14:37:37.708Z,56.78
2023-01-20T14:40:29.094Z,70.25
2023-01-20T14:42:59.237Z,58.38
2023-01-20T14:45:31.592Z,66.75
2023-01-20T14:48:01.110Z,56.33
2023-01-20T14:50:31.995Z,115.88
2023-01-20T14:52:59.428Z,116.72
2023-01-20T14:55:40.669Z,89.93
2023-01-20T14:58:16.472Z,62.08
2023-01-20T15:00:48.262Z,70.72
2023-01-20T15:03:25.035Z,65.82
2023-01-20T15:05:56.386Z,61.10
2023-01-20T15:08:34.630Z,69.40
2023-01-20T15:11:18.316Z,70.40
2023-01-20T15:13:57.537Z,60.13
2023-01-20T15:16:29.702Z,65.65
2023-01-20T15:19:35.721Z,51.47
2023-01-20T15:22:21.863Z,55.53
2023-01-20T15:24:50.059Z,55.20
2023-01-20T15:27:29.317Z,52.28
2023-01-20T15:30:28.030Z,53.50
2023-01-20T15:32:56.433Z,55.97
2023-01-20T15:35:26.071Z,61.23
2023-01-20T15:37:55.212Z,57.03
2023-01-20T15:40:24.272Z,55.38
2023-01-20T15:42:53.424Z,51.67
2023-01-20T15:45:20.830Z,64.88
2023-01-20T15:47:49.376Z,62.75
2023-01-20T15:50:20.780Z,57.73
2023-01-20T15:52:49.716Z,62.10
2023-01-20T15:55:18.583Z,61.65
2023-01-20T15:57:47.113Z,73.07
2023-01-20T16:00:19.189Z,84.83
2023-01-20T16:02:46.547Z,73.25
2023-01-20T16:05:22.398Z,76.65
2023-01-20T16:07:55.113Z,75.75
2023-01-20T16:10:22.511Z,71.22
2023-01-20T16:12:52.350Z,89.90
2023-01-20T16:15:20.828Z,87.32
2023-01-20T16:17:51.289Z,86.17
2023-01-20T16:20:22.202Z,91.35
2023-01-20T16:22:51.685Z,98.78
2023-01-20T16:25:20.178Z,96.47
2023-01-20T16:27:51.617Z,94.87
2023-01-20T16:30:24.423Z,90.55
2023-01-20T16:32:52.029Z,75.60
2023-01-20T16:35:20.691Z,75.82
2023-01-20T16:37:55.483Z,82.10
2023-01-20T16:40:37.182Z,81.90
2023-01-20T16:43:05.698Z,82.35
2023-01-20T16:45:34.771Z,86.57
2023-01-20T16:48:15.722Z,90.03
2023-01-20T16:50:44.299Z,83.00
2023-01-20T16:53:12.861Z,87.45
2023-01-20T16:55:59.153Z,89.77
2023-01-20T16:58:26.640Z,99.32
2023-01-20T17:00:55.409Z,96.45
2023-01-20T17:03:27.695Z,90.55
2023-01-20T17:05:57.486Z,102.03
2023-01-20T17:08:25.300Z,99.55
2023-01-20T17:10:52.610Z,80.97
2023-01-20T17:13:19.831Z,80.50
2023-01-20T17:15:47.317Z,88.30
2023-01-20T17:18:14.726Z,89.20
2023-01-20T17:20:41.946Z,78.75
2023-01-20T17:23:09.401Z,81.30
2023-01-20T17:25:36.710Z,79.65
2023-01-20T17:28:04.006Z,84.93
2023-01-20T17:30:34.769Z,91.60
2023-01-20T17:33:02.204Z,80.28
2023-01-20T17:35:29.560Z,88.13
2023-01-20T17:37:58.026Z,84.85
2023-01-20T17:40:25.380Z,86.63
2023-01-20T17:43:04.885Z,79.15
2023-01-20T17:45:37.835Z,77.68
2023-01-20T17:48:05.411Z,87.80
2023-01-20T17:50:32.663Z,78.35
2023-01-20T17:53:01.147Z,90.65
2023-01-20T17:55:28.685Z,85.33
2023-01-20T17:57:56.164Z,91.28
2023-01-20T18:00:23.668Z,91.63
2023-01-20T18:02:51.119Z,91.03
2023-01-20T18:05:18.398Z,84.82
2023-01-20T18:07:45.616Z,83.00
2023-01-20T18:10:14.502Z,89.63
2023-01-20T18:12:41.961Z,103.18
2023-01-20T18:15:09.525Z,96.30
2023-01-20T18:17:38.375Z,97.38
2023-01-20T18:20:06.404Z,89.72
2023-01-20T18:22:33.602Z,84.88
2023-01-20T18:25:00.998Z,105.40
2023-01-20T18:27:28.410Z,88.00
2023-01-20T18:29:56.864Z,98.82
2023-01-20T18:32:24.383Z,122.63
2023-01-20T18:34:51.674Z,119.97
2023-01-20T18:37:19.027Z,146.00
2023-01-20T18:39:46.235Z,216.82
2023-01-20T18:42:13.453Z,154.25
2023-01-20T18:44:41.007Z,135.30
2023-01-20T18:47:08.265Z,105.78
2023-01-20T18:49:35.543Z,109.40
2023-01-20T18:52:02.849Z,95.90
2023-01-20T18:54:32.856Z,87.93
2023-01-20T18:57:00.122Z,91.95
2023-01-20T18:59:27.331Z,92.93
2023-01-20T19:01:56.349Z,93.72
2023-01-20T19:04:23.590Z,87.85
2023-01-20T19:06:51.010Z,85.53
2023-01-20T19:09:19.678Z,94.15
2023-01-20T19:11:47.046Z,89.47
2023-01-20T19:14:15.421Z,83.82
2023-01-20T19:16:45.536Z,98.03
2023-01-20T19:19:13.414Z,102.15
2023-01-20T19:21:40.794Z,98.28
2023-01-20T19:24:08.317Z,93.25
2023-01-20T19:26:37.821Z,111.22
2023-01-20T19:29:07.851Z,97.07
2023-01-20T19:31:38.287Z,97.00
2023-01-20T19:34:07.045Z,107.30
2023-01-20T19:36:34.612Z,101.97
2023-01-20T19:39:01.997Z,81.35
2023-01-20T19:41:34.497Z,73.35
2023-01-20T19:44:03.347Z,75.10
2023-01-20T19:46:33.777Z,86.05
2023-01-20T19:49:02.940Z,76.47
2023-01-20T19:51:33.956Z,68.88
2023-01-20T19:54:02.687Z,70.57
2023-01-20T19:56:32.390Z,65.47
2023-01-20T19:59:00.929Z,66.45
2023-01-20T20:01:33.275Z,67.85
2023-01-20T20:04:08.836Z,59.40
2023-01-20T20:06:39.339Z,68.32
2023-01-20T20:09:09.944Z,70.28
2023-01-20T20:11:37.855Z,71.05
2023-01-20T20:14:08.803Z,66.85
2023-01-20T20:16:37.109Z,67.40
2023-01-20T20:19:05.528Z,63.88
2023-01-20T20:21:33.164Z,77.77
2023-01-20T20:24:01.530Z,69.13
2023-01-20T20:26:30.975Z,77.63
